createdAt,value
2022-12-25T00:01:40.378Z,100338.69
2022-12-25T00:04:10.010Z,100335.28
2022-12-25T00:06:42.292Z,100345.88
2022-12-25T00:09:11.977Z,100348.59
2022-12-25T00:11:41.566Z,100353.88
2022-12-25T00:14:11.138Z,100349.47
2022-12-25T00:16:40.764Z,100342.34
2022-12-25T00:19:10.418Z,100341.38
2022-12-25T00:21:42.623Z,100336.06
2022-12-25T00:24:12.491Z,100333.47
2022-12-25T00:26:42.188Z,100333.47
2022-12-25T00:29:15.191Z,100332.63
2022-12-25T00:31:44.804Z,100338.78
2022-12-25T00:34:14.415Z,100347.38
2022-12-25T00:36:46.598Z,100340.91
2022-12-25T00:39:16.198Z,100337.94
2022-12-25T00:41:58.254Z,100333.22
2022-12-25T00:44:27.815Z,100325.00
2022-12-25T00:46:57.495Z,100338.84
2022-12-25T00:49:27.147Z,100346.59
2022-12-25T00:51:59.693Z,100343.81
2022-12-25T00:54:29.318Z,100334.88
2022-12-25T00:56:58.931Z,100326.84
2022-12-25T00:59:28.542Z,100335.56
2022-12-25T01:02:18.195Z,100332.06
2022-12-25T01:04:48.147Z,100332.88
2022-12-25T01:07:20.410Z,100339.78
2022-12-25T01:10:03.125Z,100347.47
2022-12-25T01:12:34.114Z,100345.53
2022-12-25T01:15:03.858Z,100346.22
2022-12-25T01:17:33.438Z,100346.06
2022-12-25T01:20:03.260Z,100349.50
2022-12-25T01:22:35.423Z,100345.81
2022-12-25T01:25:05.164Z,100341.34
2022-12-25T01:27:34.926Z,100350.13
2022-12-25T01:30:04.646Z,100353.63
2022-12-25T01:32:34.307Z,100347.44
2022-12-25T01:35:03.883Z,100348.28
2022-12-25T01:37:36.118Z,100343.84
2022-12-25T01:40:05.791Z,100343.81
2022-12-25T01:42:35.431Z,100337.66
2022-12-25T01:45:29.805Z,100340.31
2022-12-25T01:47:59.509Z,100334.13
2022-12-25T01:50:29.549Z,100325.28
2022-12-25T01:53:01.799Z,100320.78
2022-12-25T01:55:32.097Z,100329.47
2022-12-25T01:58:01.755Z,100318.00
2022-12-25T02:00:31.799Z,100331.09
2022-12-25T02:03:01.872Z,100340.66
2022-12-25T02:05:33.336Z,100322.97
2022-12-25T02:08:10.643Z,100329.88
2022-12-25T02:10:43.662Z,100342.97
2022-12-25T02:13:14.074Z,100340.22
2022-12-25T02:15:50.781Z,100336.59
2022-12-25T02:18:24.568Z,100352.25
2022-12-25T02:21:14.715Z,100346.91
2022-12-25T02:24:24.716Z,100352.94
2022-12-25T02:27:08.161Z,100354.69
2022-12-25T02:29:45.351Z,100343.16
2022-12-25T02:32:19.085Z,100345.72
2022-12-25T02:34:53.327Z,100347.41
2022-12-25T02:37:29.105Z,100352.66
2022-12-25T02:40:00.540Z,100349.09
2022-12-25T02:42:49.773Z,100341.97
2022-12-25T02:45:38.091Z,100341.91
2022-12-25T02:48:22.029Z,100350.69
2022-12-25T02:51:04.530Z,100346.28
2022-12-25T02:53:47.652Z,100343.59
2022-12-25T02:56:41.731Z,100349.72
2022-12-25T02:59:23.821Z,100347.00
2022-12-25T03:02:09.018Z,100344.31
2022-12-25T03:04:52.230Z,100332.81
2022-12-25T03:07:23.545Z,100339.84
2022-12-25T03:10:10.871Z,100334.47
2022-12-25T03:12:46.991Z,100341.50
2022-12-25T03:15:29.355Z,100334.41
2022-12-25T03:18:03.790Z,100333.50
2022-12-25T03:20:47.327Z,100329.94
2022-12-25T03:23:30.737Z,100322.88
2022-12-25T03:26:12.822Z,100316.66
2022-12-25T03:28:42.392Z,100313.16
2022-12-25T03:31:17.320Z,100327.25
2022-12-25T03:34:29.340Z,100313.97
2022-12-25T03:37:33.246Z,100315.69
2022-12-25T03:40:21.360Z,100306.88
2022-12-25T03:43:23.953Z,100306.84
2022-12-25T03:49:07.359Z,100290.19
2022-12-25T03:51:52.919Z,100291.91
2022-12-25T03:54:38.566Z,100289.25
2022-12-25T03:57:20.678Z,100276.84
2022-12-25T04:00:02.630Z,100260.97
2022-12-25T04:02:51.564Z,100257.34
2022-12-25T04:05:33.593Z,100254.56
2022-12-25T04:08:18.391Z,100255.38
2022-12-25T04:11:00.338Z,100255.31
2022-12-25T04:13:42.467Z,100264.91
2022-12-25T04:16:36.075Z,100281.63
2022-12-25T04:19:18.036Z,100293.00
2022-12-25T04:22:00.057Z,100278.91
2022-12-25T04:24:53.362Z,100284.16
2022-12-25T04:27:35.326Z,100292.09
2022-12-25T04:30:17.362Z,100285.00
2022-12-25T04:32:59.388Z,100282.38
2022-12-25T04:35:41.393Z,100279.78
2022-12-25T04:38:10.888Z,100287.72
2022-12-25T04:40:42.960Z,100286.00
2022-12-25T04:43:12.473Z,100281.63
2022-12-25T04:45:41.944Z,100283.56
2022-12-25T04:48:11.481Z,100283.63
2022-12-25T04:50:40.967Z,100275.78
2022-12-25T04:53:10.506Z,100275.91
2022-12-25T04:55:40.055Z,100268.84
2022-12-25T04:58:12.332Z,100269.84
2022-12-25T05:00:41.876Z,100268.13
2022-12-25T05:03:11.470Z,100271.69
2022-12-25T05:05:42.339Z,100276.16
2022-12-25T05:08:11.820Z,100275.38
2022-12-25T05:10:42.841Z,100271.13
2022-12-25T05:13:15.056Z,100271.97
2022-12-25T05:15:44.751Z,100269.34
2022-12-25T05:18:14.286Z,100274.56
2022-12-25T05:20:43.831Z,100271.88
2022-12-25T05:23:13.932Z,100278.78
2022-12-25T05:25:43.443Z,100269.03
2022-12-25T05:28:15.633Z,100252.25
2022-12-25T05:30:45.299Z,100246.00
2022-12-25T05:33:14.846Z,100236.28
2022-12-25T05:35:44.333Z,100235.34
2022-12-25T05:38:13.845Z,100218.69
2022-12-25T05:40:43.516Z,100218.81
2022-12-25T05:43:15.636Z,100216.38
2022-12-25T05:45:45.098Z,100224.34
2022-12-25T05:48:14.757Z,100220.84
2022-12-25T05:50:44.233Z,100215.78
2022-12-25T05:53:15.504Z,100224.91
2022-12-25T05:55:46.237Z,100231.56
2022-12-25T05:58:18.309Z,100233.81
2022-12-25T06:00:47.812Z,100235.13
2022-12-25T06:03:17.404Z,100237.00
2022-12-25T06:05:46.994Z,100238.66
2022-12-25T06:08:16.553Z,100229.78
2022-12-25T06:10:46.018Z,100228.66
2022-12-25T06:13:18.092Z,100215.28
2022-12-25T06:15:47.589Z,100196.63
2022-12-25T06:18:17.087Z,100188.63
2022-12-25T06:20:46.624Z,100199.19
2022-12-25T06:23:16.134Z,100210.59
2022-12-25T06:25:45.597Z,100201.84
2022-12-25T06:28:17.696Z,100199.19
2022-12-25T06:30:47.189Z,100196.63
2022-12-25T06:33:16.664Z,100203.72
2022-12-25T06:35:46.187Z,100196.72
2022-12-25T06:38:15.684Z,100183.56
2022-12-25T06:40:45.227Z,100173.88
2022-12-25T06:43:14.706Z,100173.88
2022-12-25T06:45:47.792Z,100170.38
2022-12-25T06:48:17.295Z,100169.59
2022-12-25T06:50:46.776Z,100154.59
2022-12-25T06:53:16.249Z,100154.59
2022-12-25T06:55:45.732Z,100153.81
2022-12-25T06:58:15.380Z,100154.66
2022-12-25T07:00:47.527Z,100163.50
2022-12-25T07:03:21.110Z,100159.09
2022-12-25T07:05:50.927Z,100166.03
2022-12-25T07:08:20.407Z,100167.66
2022-12-25T07:10:49.899Z,100153.47
2022-12-25T07:13:19.404Z,100134.94
2022-12-25T07:15:51.473Z,100141.03
2022-12-25T07:18:20.942Z,100133.03
2022-12-25T07:20:50.483Z,100120.66
2022-12-25T07:23:19.971Z,100122.41
2022-12-25T07:25:56.348Z,100104.78
2022-12-25T07:28:26.053Z,100102.94
2022-12-25T07:31:03.089Z,100105.56
2022-12-25T07:33:32.626Z,100108.28
2022-12-25T07:36:02.250Z,100103.84
2022-12-25T07:38:31.887Z,100094.22
2022-12-25T07:41:01.422Z,100102.16
2022-12-25T07:43:30.970Z,100102.25
2022-12-25T07:46:03.536Z,100104.09
2022-12-25T07:48:33.331Z,100090.09
2022-12-25T07:51:05.069Z,100085.78
2022-12-25T07:53:35.419Z,100082.38
2022-12-25T07:56:06.360Z,100082.50
2022-12-25T07:58:36.469Z,100092.19
2022-12-25T08:01:10.839Z,100101.09
2022-12-25T08:03:41.045Z,100096.75
2022-12-25T08:06:12.101Z,100115.97
2022-12-25T08:08:42.293Z,100123.78
2022-12-25T08:11:12.507Z,100101.59
2022-12-25T08:13:42.060Z,100095.19
2022-12-25T08:16:14.255Z,100095.88
2022-12-25T08:18:44.422Z,100089.66
2022-12-25T08:21:16.098Z,100088.66
2022-12-25T08:23:46.988Z,100090.31
2022-12-25T08:26:18.729Z,100108.75
2022-12-25T08:28:48.389Z,100113.03
2022-12-25T08:31:23.905Z,100093.56
2022-12-25T08:33:55.534Z,100062.63
2022-12-25T08:36:25.692Z,100058.16
2022-12-25T08:39:02.508Z,100045.88
2022-12-25T08:41:33.380Z,100059.94
2022-12-25T08:44:02.856Z,100060.81
2022-12-25T08:46:35.297Z,100088.06
2022-12-25T08:49:04.805Z,100105.66
2022-12-25T08:51:34.501Z,100117.03
2022-12-25T08:54:03.973Z,100135.44
2022-12-25T08:56:33.616Z,100139.69
2022-12-25T08:59:03.146Z,100148.38
2022-12-25T09:01:35.366Z,100140.28
2022-12-25T09:04:05.046Z,100112.91
2022-12-25T09:06:34.569Z,100102.28
2022-12-25T09:09:04.052Z,100090.00
2022-12-25T09:11:33.536Z,100062.97
2022-12-25T09:14:03.145Z,100057.31
2022-12-25T09:16:35.655Z,100081.63
2022-12-25T09:19:05.140Z,100083.75
2022-12-25T09:21:36.733Z,100086.69
2022-12-25T09:24:06.505Z,100086.00
2022-12-25T09:26:36.447Z,100088.78
2022-12-25T09:29:06.217Z,100101.22
2022-12-25T09:31:38.428Z,100107.50
2022-12-25T09:34:08.080Z,100104.84
2022-12-25T09:36:37.673Z,100112.84
2022-12-25T09:39:07.354Z,100114.63
2022-12-25T09:41:39.426Z,100116.41
2022-12-25T09:44:11.137Z,100121.69
2022-12-25T09:46:55.120Z,100122.56
2022-12-25T09:49:30.274Z,100125.19
2022-12-25T09:52:04.182Z,100130.41
2022-12-25T09:54:40.861Z,100140.00
2022-12-25T09:57:13.855Z,100146.00
2022-12-25T09:59:47.511Z,100137.97
2022-12-25T10:02:37.668Z,100141.31
2022-12-25T10:05:31.329Z,100124.56
2022-12-25T10:08:06.013Z,100111.34
2022-12-25T10:10:53.317Z,100109.53
2022-12-25T10:13:43.734Z,100112.22
2022-12-25T10:16:21.174Z,100112.28
2022-12-25T10:19:07.799Z,100107.00
2022-12-25T10:21:37.395Z,100098.16
2022-12-25T10:24:22.372Z,100080.50
2022-12-25T10:26:53.547Z,100062.97
2022-12-25T10:29:23.127Z,100069.16
2022-12-25T10:31:55.559Z,100056.81
2022-12-25T10:34:27.967Z,100052.47
2022-12-25T10:36:57.807Z,100057.69
2022-12-25T10:39:28.972Z,100058.53
2022-12-25T10:42:24.713Z,100056.72
2022-12-25T10:44:59.324Z,100038.22
2022-12-25T10:47:30.709Z,100030.31
2022-12-25T10:50:03.468Z,100028.44
2022-12-25T10:52:33.050Z,100044.16
2022-12-25T10:55:13.620Z,100049.19
2022-12-25T10:57:47.863Z,100040.34
2022-12-25T11:00:24.328Z,100032.28
2022-12-25T11:02:54.359Z,100039.28
2022-12-25T11:05:31.106Z,100039.22
2022-12-25T11:08:02.681Z,100037.34
2022-12-25T11:10:34.721Z,100018.00
2022-12-25T11:13:04.740Z,100005.72
2022-12-25T11:15:40.144Z,99997.78
2022-12-25T11:18:22.311Z,99984.72
2022-12-25T11:20:56.384Z,99975.06
2022-12-25T11:23:27.477Z,99981.25
2022-12-25T11:26:01.076Z,99968.81
2022-12-25T11:28:33.233Z,99955.53
2022-12-25T11:31:05.489Z,99944.97
2022-12-25T11:33:38.459Z,99927.34
2022-12-25T11:36:18.223Z,99927.19
2022-12-25T11:38:47.991Z,99919.97
2022-12-25T11:41:20.831Z,99911.94
2022-12-25T11:43:53.516Z,99902.13
2022-12-25T11:46:27.084Z,99903.78
2022-12-25T11:48:59.143Z,99887.06
2022-12-25T11:51:34.870Z,99886.13
2022-12-25T11:54:08.487Z,99880.00
2022-12-25T11:56:40.593Z,99879.91
2022-12-25T11:59:18.051Z,99883.56
2022-12-25T12:01:51.288Z,99884.50
2022-12-25T12:04:29.208Z,99872.16
2022-12-25T12:07:06.268Z,99879.16
2022-12-25T12:09:43.428Z,99855.28
2022-12-25T12:12:18.550Z,99855.22
2022-12-25T12:14:55.573Z,99859.59
2022-12-25T12:17:25.274Z,99861.28
2022-12-25T12:19:55.062Z,99857.72
2022-12-25T12:22:28.988Z,99855.00
2022-12-25T12:25:02.632Z,99858.44
2022-12-25T12:27:36.424Z,99841.66
2022-12-25T12:30:07.014Z,99840.69
2022-12-25T12:32:42.628Z,99857.44
2022-12-25T12:35:18.697Z,99858.28
2022-12-25T12:37:54.291Z,99847.72
2022-12-25T12:40:31.035Z,99845.84
2022-12-25T12:43:00.896Z,99846.72
2022-12-25T12:45:34.147Z,99842.25
2022-12-25T12:48:03.947Z,99840.41
2022-12-25T12:50:37.802Z,99840.34
2022-12-25T12:53:31.242Z,99833.97
2022-12-25T12:56:11.957Z,99818.91
2022-12-25T12:58:45.444Z,99817.03
2022-12-25T13:01:22.153Z,99811.59
2022-12-25T13:04:14.417Z,99806.03
2022-12-25T13:06:46.935Z,99813.63
2022-12-25T13:09:30.188Z,99813.34
2022-12-25T13:11:59.883Z,99814.75
2022-12-25T13:14:29.692Z,99811.81
2022-12-25T13:16:59.768Z,99813.28
2022-12-25T13:19:31.430Z,99795.41
2022-12-25T13:22:02.348Z,99791.66
2022-12-25T13:24:36.033Z,99790.50
2022-12-25T13:27:23.597Z,99791.13
2022-12-25T13:29:53.264Z,99783.84
2022-12-25T13:32:26.578Z,99788.03
2022-12-25T13:34:56.969Z,99786.09
2022-12-25T13:37:28.416Z,99793.78
2022-12-25T13:40:02.821Z,99783.91
2022-12-25T13:42:31.729Z,99773.16
2022-12-25T13:45:02.636Z,99780.00
2022-12-25T13:47:34.871Z,99783.31
2022-12-25T13:50:17.250Z,99790.16
2022-12-25T13:52:46.883Z,99787.31
2022-12-25T13:55:20.129Z,99795.88
2022-12-25T13:57:54.631Z,99788.56
2022-12-25T14:00:28.139Z,99784.00
2022-12-25T14:02:57.906Z,99785.66
2022-12-25T14:05:39.697Z,99778.41
2022-12-25T14:08:16.878Z,99771.22
2022-12-25T14:10:52.219Z,99777.22
2022-12-25T14:13:24.205Z,99776.19
2022-12-25T14:15:54.290Z,99782.34
2022-12-25T14:18:25.226Z,99790.19
2022-12-25T14:21:01.173Z,99788.41
2022-12-25T14:23:35.810Z,99776.81
2022-12-25T14:26:08.226Z,99776.84
2022-12-25T14:28:37.864Z,99790.03
2022-12-25T14:31:07.866Z,99792.63
2022-12-25T14:33:40.102Z,99780.22
2022-12-25T14:36:10.614Z,99781.94
2022-12-25T14:38:41.681Z,99779.19
2022-12-25T14:41:33.676Z,99775.69
2022-12-25T14:44:04.693Z,99776.63
2022-12-25T14:46:36.027Z,99781.00
2022-12-25T14:49:07.216Z,99794.28
2022-12-25T14:51:40.116Z,99799.59
2022-12-25T14:54:18.584Z,99794.28
2022-12-25T14:56:56.137Z,99794.28
2022-12-25T14:59:28.283Z,99781.06
2022-12-25T15:02:01.121Z,99781.00
2022-12-25T15:04:31.397Z,99772.97
2022-12-25T15:07:07.313Z,99767.56
2022-12-25T15:09:37.796Z,99767.56
2022-12-25T15:12:10.249Z,99769.34
2022-12-25T15:14:40.294Z,99772.97
2022-12-25T15:17:09.881Z,99766.78
2022-12-25T15:19:40.422Z,99774.66
2022-12-25T15:22:10.049Z,99766.78
2022-12-25T15:24:39.630Z,99764.03
2022-12-25T15:27:16.279Z,99765.75
2022-12-25T15:30:09.356Z,99761.25
2022-12-25T15:32:35.481Z,99750.47
2022-12-25T15:35:05.047Z,99751.25
2022-12-25T15:37:34.663Z,99743.22
2022-12-25T15:40:06.372Z,99737.84
2022-12-25T15:42:38.830Z,99744.75
2022-12-25T15:45:12.173Z,99743.75
2022-12-25T15:47:41.775Z,99749.78
2022-12-25T15:50:12.598Z,99747.84
2022-12-25T15:52:42.220Z,99750.31
2022-12-25T15:55:12.800Z,99738.69
2022-12-25T15:57:47.194Z,99743.88
2022-12-25T16:00:19.514Z,99740.28
2022-12-25T16:02:49.249Z,99746.25
2022-12-25T16:05:19.152Z,99735.50
2022-12-25T16:07:48.776Z,99734.47
2022-12-25T16:10:22.639Z,99731.81
2022-12-25T16:12:54.807Z,99730.84
2022-12-25T16:15:24.396Z,99728.13
2022-12-25T16:17:53.954Z,99726.25
2022-12-25T16:20:23.533Z,99726.16
2022-12-25T16:22:53.126Z,99722.56
2022-12-25T16:25:23.532Z,99719.81
2022-12-25T16:27:55.761Z,99720.56
2022-12-25T16:30:25.380Z,99727.59
2022-12-25T16:32:54.958Z,99717.69
2022-12-25T16:35:24.541Z,99715.78
2022-12-25T16:37:54.178Z,99714.84
2022-12-25T16:40:23.790Z,99714.75
2022-12-25T16:42:57.621Z,99719.94
2022-12-25T16:45:27.208Z,99730.47
2022-12-25T16:47:56.843Z,99722.44
2022-12-25T16:50:26.520Z,99730.41
2022-12-25T16:52:56.118Z,99730.41
2022-12-25T16:55:30.024Z,99725.00
2022-12-25T16:58:02.659Z,99726.69
2022-12-25T17:00:32.246Z,99727.56
2022-12-25T17:03:02.951Z,99728.41
2022-12-25T17:05:32.684Z,99723.09
2022-12-25T17:08:02.343Z,99729.28
2022-12-25T17:10:32.446Z,99724.91
2022-12-25T17:13:04.689Z,99730.41
2022-12-25T17:15:34.280Z,99721.56
2022-12-25T17:18:03.880Z,99718.16
2022-12-25T17:20:33.867Z,99728.78
2022-12-25T17:23:03.461Z,99723.63
2022-12-25T17:25:33.174Z,99732.66
2022-12-25T17:28:05.416Z,99737.16
2022-12-25T17:30:36.304Z,99740.94
2022-12-25T17:33:05.996Z,99732.25
2022-12-25T17:35:37.829Z,99731.38
2022-12-25T17:38:07.433Z,99731.47
2022-12-25T17:40:37.053Z,99738.56
2022-12-25T17:43:10.456Z,99735.03
2022-12-25T17:45:42.628Z,99727.09
2022-12-25T17:48:12.265Z,99739.41
2022-12-25T17:50:41.918Z,99732.31
2022-12-25T17:53:11.537Z,99728.72
2022-12-25T17:55:41.357Z,99720.66
2022-12-25T17:58:13.987Z,99733.00
2022-12-25T18:00:43.585Z,99731.19
2022-12-25T18:03:13.614Z,99734.72
2022-12-25T18:05:43.370Z,99734.72
2022-12-25T18:08:13.040Z,99740.09
2022-12-25T18:10:44.465Z,99740.19
2022-12-25T18:13:16.625Z,99737.53
2022-12-25T18:15:46.348Z,99727.78
2022-12-25T18:18:15.965Z,99728.63
2022-12-25T18:20:45.574Z,99720.56
2022-12-25T18:23:15.284Z,99720.50
2022-12-25T18:25:45.521Z,99729.31
2022-12-25T18:28:17.977Z,99712.47
2022-12-25T18:30:48.273Z,99712.38
2022-12-25T18:33:17.916Z,99719.28
2022-12-25T18:35:47.661Z,99718.34
2022-12-25T18:38:17.657Z,99716.56
2022-12-25T18:40:48.876Z,99720.97
2022-12-25T18:43:21.138Z,99723.63
2022-12-25T18:46:10.813Z,99722.69
2022-12-25T18:48:41.202Z,99717.50
2022-12-25T18:51:11.934Z,99721.84
2022-12-25T18:53:44.722Z,99717.41
2022-12-25T18:56:17.249Z,99721.75
2022-12-25T18:58:50.233Z,99724.41
2022-12-25T19:01:22.049Z,99710.22
2022-12-25T19:03:53.140Z,99714.56
2022-12-25T19:06:26.697Z,99721.56
2022-12-25T19:08:57.904Z,99714.56
2022-12-25T19:11:27.546Z,99725.09
2022-12-25T19:13:59.733Z,99716.19
2022-12-25T19:16:29.432Z,99717.88
2022-12-25T19:18:59.680Z,99722.25
2022-12-25T19:21:29.373Z,99730.97
2022-12-25T19:23:59.025Z,99725.66
2022-12-25T19:26:28.660Z,99725.66
2022-12-25T19:29:00.837Z,99730.81
2022-12-25T19:31:30.828Z,99723.69
2022-12-25T19:34:00.505Z,99738.66
2022-12-25T19:36:30.145Z,99739.50
2022-12-25T19:38:59.728Z,99747.47
2022-12-25T19:41:29.363Z,99751.84
2022-12-25T19:44:01.571Z,99743.78
2022-12-25T19:46:33.695Z,99752.69
2022-12-25T19:49:04.630Z,99757.13
2022-12-25T19:51:35.884Z,99753.66
2022-12-25T19:54:05.805Z,99753.56
2022-12-25T19:56:36.414Z,99752.69
2022-12-25T19:59:08.609Z,99757.97
2022-12-25T20:01:38.878Z,99754.50
2022-12-25T20:04:09.722Z,99750.13
2022-12-25T20:06:42.616Z,99750.13
2022-12-25T20:09:20.795Z,99752.03
2022-12-25T20:11:50.790Z,99746.88
2022-12-25T20:14:22.977Z,99738.91
2022-12-25T20:16:52.659Z,99740.72
2022-12-25T20:19:22.285Z,99745.19
2022-12-25T20:21:51.887Z,99733.72
2022-12-25T20:24:21.444Z,99741.66
2022-12-25T20:26:56.959Z,99746.97
2022-12-25T20:29:31.128Z,99750.50
2022-12-25T20:32:00.800Z,99746.03
2022-12-25T20:34:30.462Z,99740.72
2022-12-25T20:37:00.052Z,99741.56
2022-12-25T20:39:29.675Z,99746.88
2022-12-25T20:41:59.284Z,99745.00
2022-12-25T20:44:32.296Z,99747.56
2022-12-25T20:47:03.543Z,99750.13
2022-12-25T20:49:34.607Z,99751.84
2022-12-25T20:52:05.836Z,99750.03
2022-12-25T20:54:36.089Z,99745.59
2022-12-25T20:57:05.756Z,99736.66
2022-12-25T20:59:38.547Z,99743.59
2022-12-25T21:02:08.814Z,99748.91
2022-12-25T21:04:58.179Z,99738.19
2022-12-25T21:07:27.796Z,99735.53
2022-12-25T21:09:57.399Z,99747.88
2022-12-25T21:12:26.995Z,99743.44
2022-12-25T21:14:59.172Z,99745.13
2022-12-25T21:17:28.816Z,99752.97
2022-12-25T21:19:58.455Z,99756.41
2022-12-25T21:22:28.067Z,99744.88
2022-12-25T21:24:57.639Z,99747.53
2022-12-25T21:27:27.248Z,99744.88
2022-12-25T21:30:00.112Z,99755.47
2022-12-25T21:32:57.628Z,99752.81
2022-12-25T21:35:27.228Z,99758.13
2022-12-25T21:37:56.829Z,99753.78
2022-12-25T21:40:26.477Z,99756.41
2022-12-25T21:42:56.092Z,99764.38
2022-12-25T21:45:28.278Z,99767.03
2022-12-25T21:48:01.494Z,99761.72
2022-12-25T21:50:45.332Z,99760.09
2022-12-25T21:53:18.071Z,99761.91
2022-12-25T21:55:58.619Z,99769.09
2022-12-25T21:58:28.272Z,99754.13
2022-12-25T22:01:05.091Z,99757.72
2022-12-25T22:03:34.922Z,99763.03
2022-12-25T22:06:21.421Z,99764.72
2022-12-25T22:08:51.487Z,99761.13
2022-12-25T22:11:33.620Z,99772.53
2022-12-25T22:14:15.692Z,99779.59
2022-12-25T22:17:00.342Z,99767.31
2022-12-25T22:19:57.518Z,99768.34
2022-12-25T22:22:30.367Z,99776.41
2022-12-25T22:25:01.156Z,99766.81
2022-12-25T22:27:34.310Z,99782.72
2022-12-25T22:30:03.963Z,99787.16
2022-12-25T22:32:37.512Z,99804.03
2022-12-25T22:35:07.880Z,99831.59
2022-12-25T22:37:37.534Z,99825.69
2022-12-25T22:40:09.962Z,99836.63
2022-12-25T22:42:39.623Z,99829.22
2022-12-25T22:45:10.367Z,99832.19
2022-12-25T22:47:43.036Z,99824.53
2022-12-25T22:50:14.677Z,99821.16
2022-12-25T22:52:45.817Z,99826.66
2022-12-25T22:55:18.829Z,99845.31
2022-12-25T22:57:49.012Z,99845.44
2022-12-25T23:00:18.775Z,99835.88
2022-12-25T23:02:51.159Z,99849.19
2022-12-25T23:05:20.864Z,99856.41
2022-12-25T23:07:50.440Z,99856.50
2022-12-25T23:10:20.191Z,99848.53
2022-12-25T23:13:02.257Z,99849.56
2022-12-25T23:15:32.546Z,99856.56
2022-12-25T23:18:17.278Z,99860.16
2022-12-25T23:20:59.352Z,99860.25
2022-12-25T23:23:41.413Z,99866.47
2022-12-25T23:26:11.210Z,99857.75
2022-12-25T23:28:54.801Z,99856.06
2022-12-25T23:31:25.886Z,99863.13
2022-12-25T23:33:58.131Z,99857.06
2022-12-25T23:36:27.812Z,99860.56
2022-12-25T23:39:01.613Z,99846.47
2022-12-25T23:41:34.679Z,99857.91
2022-12-25T23:44:04.361Z,99852.63
2022-12-25T23:46:34.403Z,99842.94
2022-12-25T23:49:07.010Z,99851.78
2022-12-25T23:51:37.780Z,99850.91
2022-12-25T23:54:07.895Z,99842.00
2022-12-25T23:56:37.586Z,99851.69
2022-12-25T23:59:07.860Z,99842.88
